sensor_id;sensor_type;location;lat;lon;timestamp;temperature;humidity
67133;HTU21D;54052;53.542;49.408;2023-03-13T00:01:35;7.41;76.00
67133;HTU21D;54052;53.542;49.408;2023-03-13T00:04:01;7.48;75.63
67133;HTU21D;54052;53.542;49.408;2023-03-13T00:06:33;7.44;75.80
67133;HTU21D;54052;53.542;49.408;2023-03-13T00:09:00;7.49;75.56
67133;HTU21D;54052;53.542;49.408;2023-03-13T00:11:27;7.47;75.68
67133;HTU21D;54052;53.542;49.408;2023-03-13T00:13:54;7.40;76.01
67133;HTU21D;54052;53.542;49.408;2023-03-13T00:16:21;7.43;75.99
67133;HTU21D;54052;53.542;49.408;2023-03-13T00:18:49;7.40;76.04
67133;HTU21D;54052;53.542;49.408;2023-03-13T00:21:16;7.34;76.27
67133;HTU21D;54052;53.542;49.408;2023-03-13T00:23:44;7.35;76.05
67133;HTU21D;54052;53.542;49.408;2023-03-13T00:26:12;7.32;76.38
67133;HTU21D;54052;53.542;49.408;2023-03-13T00:28:40;7.27;76.66
67133;HTU21D;54052;53.542;49.408;2023-03-13T00:31:21;7.25;76.78
67133;HTU21D;54052;53.542;49.408;2023-03-13T00:33:49;7.30;76.58
67133;HTU21D;54052;53.542;49.408;2023-03-13T00:36:22;7.31;76.30
67133;HTU21D;54052;53.542;49.408;2023-03-13T00:38:49;7.30;76.30
67133;HTU21D;54052;53.542;49.408;2023-03-13T00:41:17;7.33;76.29
67133;HTU21D;54052;53.542;49.408;2023-03-13T00:43:45;7.34;76.36
67133;HTU21D;54052;53.542;49.408;2023-03-13T00:46:13;7.38;76.27
67133;HTU21D;54052;53.542;49.408;2023-03-13T00:48:40;7.38;76.21
67133;HTU21D;54052;53.542;49.408;2023-03-13T00:51:07;7.38;76.34
67133;HTU21D;54052;53.542;49.408;2023-03-13T00:53:33;7.32;76.71
67133;HTU21D;54052;53.542;49.408;2023-03-13T00:56:02;7.34;76.95
67133;HTU21D;54052;53.542;49.408;2023-03-13T00:58:30;7.32;76.85
67133;HTU21D;54052;53.542;49.408;2023-03-13T01:00:56;7.27;77.29
67133;HTU21D;54052;53.542;49.408;2023-03-13T01:03:23;7.33;77.03
67133;HTU21D;54052;53.542;49.408;2023-03-13T01:05:58;7.28;77.16
67133;HTU21D;54052;53.542;49.408;2023-03-13T01:08:24;7.27;77.09
67133;HTU21D;54052;53.542;49.408;2023-03-13T01:11:09;7.25;77.18
67133;HTU21D;54052;53.542;49.408;2023-03-13T01:13:36;7.34;76.79
67133;HTU21D;54052;53.542;49.408;2023-03-13T01:16:13;7.40;76.73
67133;HTU21D;54052;53.542;49.408;2023-03-13T01:18:45;7.38;76.66
67133;HTU21D;54052;53.542;49.408;2023-03-13T01:21:13;7.24;77.25
67133;HTU21D;54052;53.542;49.408;2023-03-13T01:23:40;7.16;77.31
67133;HTU21D;54052;53.542;49.408;2023-03-13T01:26:07;7.16;77.64
67133;HTU21D;54052;53.542;49.408;2023-03-13T01:28:34;7.14;77.63
67133;HTU21D;54052;53.542;49.408;2023-03-13T01:31:16;7.13;77.86
67133;HTU21D;54052;53.542;49.408;2023-03-13T01:33:44;7.14;77.85
67133;HTU21D;54052;53.542;49.408;2023-03-13T01:36:10;7.14;77.88
67133;HTU21D;54052;53.542;49.408;2023-03-13T01:38:37;7.17;77.69
67133;HTU21D;54052;53.542;49.408;2023-03-13T01:41:04;7.13;78.08
67133;HTU21D;54052;53.542;49.408;2023-03-13T01:43:33;7.20;78.22
67133;HTU21D;54052;53.542;49.408;2023-03-13T01:46:04;7.10;79.24
67133;HTU21D;54052;53.542;49.408;2023-03-13T01:51:49;6.95;80.65
67133;HTU21D;54052;53.542;49.408;2023-03-13T01:57:13;6.82;81.46
67133;HTU21D;54052;53.542;49.408;2023-03-13T01:59:45;6.78;81.82
67133;HTU21D;54052;53.542;49.408;2023-03-13T02:02:14;6.70;82.23
67133;HTU21D;54052;53.542;49.408;2023-03-13T02:04:44;6.68;82.69
67133;HTU21D;54052;53.542;49.408;2023-03-13T02:07:16;6.65;83.29
67133;HTU21D;54052;53.542;49.408;2023-03-13T02:09:46;6.73;82.71
67133;HTU21D;54052;53.542;49.408;2023-03-13T02:12:21;6.78;82.49
67133;HTU21D;54052;53.542;49.408;2023-03-13T02:14:50;6.72;82.75
67133;HTU21D;54052;53.542;49.408;2023-03-13T02:17:17;6.66;83.00
67133;HTU21D;54052;53.542;49.408;2023-03-13T02:19:47;6.63;83.24
67133;HTU21D;54052;53.542;49.408;2023-03-13T02:22:29;6.55;83.59
67133;HTU21D;54052;53.542;49.408;2023-03-13T02:27:34;6.56;83.37
67133;HTU21D;54052;53.542;49.408;2023-03-13T02:30:00;6.60;83.13
67133;HTU21D;54052;53.542;49.408;2023-03-13T02:32:28;6.58;83.33
67133;HTU21D;54052;53.542;49.408;2023-03-13T02:34:58;6.56;83.30
67133;HTU21D;54052;53.542;49.408;2023-03-13T02:37:28;6.53;83.62
67133;HTU21D;54052;53.542;49.408;2023-03-13T02:39:57;6.64;82.87
67133;HTU21D;54052;53.542;49.408;2023-03-13T02:42:24;6.61;82.99
67133;HTU21D;54052;53.542;49.408;2023-03-13T02:44:51;6.61;82.99
67133;HTU21D;54052;53.542;49.408;2023-03-13T02:47:20;6.63;83.14
67133;HTU21D;54052;53.542;49.408;2023-03-13T02:49:46;6.55;83.28
67133;HTU21D;54052;53.542;49.408;2023-03-13T02:52:20;6.54;83.91
67133;HTU21D;54052;53.542;49.408;2023-03-13T02:54:52;6.55;83.69
67133;HTU21D;54052;53.542;49.408;2023-03-13T02:57:20;6.43;84.42
67133;HTU21D;54052;53.542;49.408;2023-03-13T02:59:46;6.39;84.62
67133;HTU21D;54052;53.542;49.408;2023-03-13T03:02:12;6.36;85.16
67133;HTU21D;54052;53.542;49.408;2023-03-13T03:04:38;6.31;85.54
67133;HTU21D;54052;53.542;49.408;2023-03-13T03:07:04;6.31;85.54
67133;HTU21D;54052;53.542;49.408;2023-03-13T03:09:30;6.42;85.19
67133;HTU21D;54052;53.542;49.408;2023-03-13T03:11:56;6.45;85.02
67133;HTU21D;54052;53.542;49.408;2023-03-13T03:14:23;6.50;85.03
67133;HTU21D;54052;53.542;49.408;2023-03-13T03:16:49;6.40;85.79
67133;HTU21D;54052;53.542;49.408;2023-03-13T03:19:15;6.36;85.64
67133;HTU21D;54052;53.542;49.408;2023-03-13T03:21:41;6.34;85.84
67133;HTU21D;54052;53.542;49.408;2023-03-13T03:24:07;6.25;86.27
67133;HTU21D;54052;53.542;49.408;2023-03-13T03:26:33;6.27;86.19
67133;HTU21D;54052;53.542;49.408;2023-03-13T03:28:59;6.30;85.90
67133;HTU21D;54052;53.542;49.408;2023-03-13T03:31:25;6.31;85.67
67133;HTU21D;54052;53.542;49.408;2023-03-13T03:33:51;6.27;86.19
67133;HTU21D;54052;53.542;49.408;2023-03-13T03:36:22;6.35;85.75
67133;HTU21D;54052;53.542;49.408;2023-03-13T03:38:49;6.38;85.68
67133;HTU21D;54052;53.542;49.408;2023-03-13T03:41:16;6.33;85.90
67133;HTU21D;54052;53.542;49.408;2023-03-13T03:43:44;6.33;86.25
67133;HTU21D;54052;53.542;49.408;2023-03-13T03:46:10;6.29;87.00
67133;HTU21D;54052;53.542;49.408;2023-03-13T03:48:36;6.36;86.74
67133;HTU21D;54052;53.542;49.408;2023-03-13T03:51:03;6.42;86.12
67133;HTU21D;54052;53.542;49.408;2023-03-13T03:53:29;6.44;85.74
67133;HTU21D;54052;53.542;49.408;2023-03-13T03:55:57;6.52;85.77
67133;HTU21D;54052;53.542;49.408;2023-03-13T03:58:23;6.46;85.90
67133;HTU21D;54052;53.542;49.408;2023-03-13T04:00:49;6.53;85.71
67133;HTU21D;54052;53.542;49.408;2023-03-13T04:03:15;6.54;85.49
67133;HTU21D;54052;53.542;49.408;2023-03-13T04:05:42;6.53;85.56
67133;HTU21D;54052;53.542;49.408;2023-03-13T04:08:09;6.46;86.22
67133;HTU21D;54052;53.542;49.408;2023-03-13T04:10:36;6.45;86.33
67133;HTU21D;54052;53.542;49.408;2023-03-13T04:13:02;6.40;87.06
67133;HTU21D;54052;53.542;49.408;2023-03-13T04:15:28;6.34;87.48
67133;HTU21D;54052;53.542;49.408;2023-03-13T04:17:54;6.33;87.61
67133;HTU21D;54052;53.542;49.408;2023-03-13T04:20:20;6.36;87.44
67133;HTU21D;54052;53.542;49.408;2023-03-13T04:22:46;6.40;87.44
67133;HTU21D;54052;53.542;49.408;2023-03-13T04:25:12;6.42;87.34
67133;HTU21D;54052;53.542;49.408;2023-03-13T04:27:38;6.48;87.57
67133;HTU21D;54052;53.542;49.408;2023-03-13T04:30:04;6.42;87.77
67133;HTU21D;54052;53.542;49.408;2023-03-13T04:32:31;6.36;88.15
67133;HTU21D;54052;53.542;49.408;2023-03-13T04:34:57;6.40;88.25
67133;HTU21D;54052;53.542;49.408;2023-03-13T04:37:23;6.44;88.21
67133;HTU21D;54052;53.542;49.408;2023-03-13T04:39:49;6.43;88.09
67133;HTU21D;54052;53.542;49.408;2023-03-13T04:42:16;6.36;88.74
67133;HTU21D;54052;53.542;49.408;2023-03-13T04:44:42;6.39;88.55
67133;HTU21D;54052;53.542;49.408;2023-03-13T04:47:08;6.40;88.52
67133;HTU21D;54052;53.542;49.408;2023-03-13T04:49:34;6.45;87.97
67133;HTU21D;54052;53.542;49.408;2023-03-13T04:52:01;6.43;88.08
67133;HTU21D;54052;53.542;49.408;2023-03-13T04:54:27;6.41;88.58
67133;HTU21D;54052;53.542;49.408;2023-03-13T04:56:53;6.46;88.30
67133;HTU21D;54052;53.542;49.408;2023-03-13T04:59:19;6.43;88.18
67133;HTU21D;54052;53.542;49.408;2023-03-13T05:01:46;6.49;88.27
67133;HTU21D;54052;53.542;49.408;2023-03-13T05:04:12;6.42;88.28
67133;HTU21D;54052;53.542;49.408;2023-03-13T05:06:38;6.37;88.93
67133;HTU21D;54052;53.542;49.408;2023-03-13T05:09:05;6.36;88.96
67133;HTU21D;54052;53.542;49.408;2023-03-13T05:11:40;6.36;89.18
67133;HTU21D;54052;53.542;49.408;2023-03-13T05:14:07;6.37;89.09
67133;HTU21D;54052;53.542;49.408;2023-03-13T05:16:37;6.25;90.02
67133;HTU21D;54052;53.542;49.408;2023-03-13T05:19:03;6.26;89.78
67133;HTU21D;54052;53.542;49.408;2023-03-13T05:21:30;6.28;90.42
67133;HTU21D;54052;53.542;49.408;2023-03-13T05:23:56;6.36;89.55
67133;HTU21D;54052;53.542;49.408;2023-03-13T05:26:22;6.38;89.35
67133;HTU21D;54052;53.542;49.408;2023-03-13T05:28:48;6.40;89.13
67133;HTU21D;54052;53.542;49.408;2023-03-13T05:31:14;6.37;89.35
67133;HTU21D;54052;53.542;49.408;2023-03-13T05:33:41;6.30;89.41
67133;HTU21D;54052;53.542;49.408;2023-03-13T05:36:07;6.26;89.74
67133;HTU21D;54052;53.542;49.408;2023-03-13T05:38:33;6.25;90.11
67133;HTU21D;54052;53.542;49.408;2023-03-13T05:41:00;6.20;90.03
67133;HTU21D;54052;53.542;49.408;2023-03-13T05:43:26;6.21;90.17
67133;HTU21D;54052;53.542;49.408;2023-03-13T05:45:52;6.09;90.34
67133;HTU21D;54052;53.542;49.408;2023-03-13T05:48:18;5.97;90.65
67133;HTU21D;54052;53.542;49.408;2023-03-13T05:50:44;5.87;90.75
67133;HTU21D;54052;53.542;49.408;2023-03-13T05:53:11;5.75;91.39
67133;HTU21D;54052;53.542;49.408;2023-03-13T05:55:37;5.70;91.93
67133;HTU21D;54052;53.542;49.408;2023-03-13T05:58:03;5.66;92.12
67133;HTU21D;54052;53.542;49.408;2023-03-13T06:00:30;5.59;91.54
67133;HTU21D;54052;53.542;49.408;2023-03-13T06:02:56;5.39;90.39
67133;HTU21D;54052;53.542;49.408;2023-03-13T06:05:22;5.24;90.50
67133;HTU21D;54052;53.542;49.408;2023-03-13T06:07:48;5.07;90.66
67133;HTU21D;54052;53.542;49.408;2023-03-13T06:10:15;5.00;90.76
67133;HTU21D;54052;53.542;49.408;2023-03-13T06:12:41;4.84;89.72
67133;HTU21D;54052;53.542;49.408;2023-03-13T06:15:07;4.74;88.60
67133;HTU21D;54052;53.542;49.408;2023-03-13T06:17:35;4.66;87.57
67133;HTU21D;54052;53.542;49.408;2023-03-13T06:20:02;4.60;87.53
67133;HTU21D;54052;53.542;49.408;2023-03-13T06:22:30;4.41;87.43
67133;HTU21D;54052;53.542;49.408;2023-03-13T06:24:56;4.35;87.83
67133;HTU21D;54052;53.542;49.408;2023-03-13T06:27:22;4.39;88.28
67133;HTU21D;54052;53.542;49.408;2023-03-13T06:29:48;4.35;87.94
67133;HTU21D;54052;53.542;49.408;2023-03-13T06:32:14;4.29;88.39
67133;HTU21D;54052;53.542;49.408;2023-03-13T06:34:40;4.23;89.18
67133;HTU21D;54052;53.542;49.408;2023-03-13T06:37:06;4.19;88.40
67133;HTU21D;54052;53.542;49.408;2023-03-13T06:39:32;4.15;88.21
67133;HTU21D;54052;53.542;49.408;2023-03-13T06:41:58;3.78;88.06
67133;HTU21D;54052;53.542;49.408;2023-03-13T06:44:24;3.27;89.35
67133;HTU21D;54052;53.542;49.408;2023-03-13T06:46:50;2.87;90.57
67133;HTU21D;54052;53.542;49.408;2023-03-13T06:49:17;2.68;90.34
67133;HTU21D;54052;53.542;49.408;2023-03-13T06:51:43;2.38;90.76
67133;HTU21D;54052;53.542;49.408;2023-03-13T06:54:09;2.16;90.36
67133;HTU21D;54052;53.542;49.408;2023-03-13T06:56:36;1.96;91.71
67133;HTU21D;54052;53.542;49.408;2023-03-13T06:59:04;1.88;91.74
67133;HTU21D;54052;53.542;49.408;2023-03-13T07:01:32;1.88;92.13
67133;HTU21D;54052;53.542;49.408;2023-03-13T07:03:58;1.93;91.86
67133;HTU21D;54052;53.542;49.408;2023-03-13T07:06:24;1.87;92.04
67133;HTU21D;54052;53.542;49.408;2023-03-13T07:08:51;1.87;92.37
67133;HTU21D;54052;53.542;49.408;2023-03-13T07:11:19;1.92;91.95
67133;HTU21D;54052;53.542;49.408;2023-03-13T07:13:45;1.92;91.86
67133;HTU21D;54052;53.542;49.408;2023-03-13T07:16:12;1.83;91.56
67133;HTU21D;54052;53.542;49.408;2023-03-13T07:18:39;1.79;92.40
67133;HTU21D;54052;53.542;49.408;2023-03-13T07:21:10;1.78;92.05
67133;HTU21D;54052;53.542;49.408;2023-03-13T07:23:37;1.73;92.56
67133;HTU21D;54052;53.542;49.408;2023-03-13T07:26:15;1.82;92.53
67133;HTU21D;54052;53.542;49.408;2023-03-13T07:28:41;1.84;92.46
67133;HTU21D;54052;53.542;49.408;2023-03-13T07:31:19;1.94;91.81
67133;HTU21D;54052;53.542;49.408;2023-03-13T07:33:45;1.97;91.34
67133;HTU21D;54052;53.542;49.408;2023-03-13T07:36:13;2.02;90.52
67133;HTU21D;54052;53.542;49.408;2023-03-13T07:38:40;2.01;90.61
67133;HTU21D;54052;53.542;49.408;2023-03-13T07:41:10;2.03;90.29
67133;HTU21D;54052;53.542;49.408;2023-03-13T07:43:37;2.01;90.34
67133;HTU21D;54052;53.542;49.408;2023-03-13T07:46:05;1.98;90.67
67133;HTU21D;54052;53.542;49.408;2023-03-13T07:48:35;2.03;90.58
67133;HTU21D;54052;53.542;49.408;2023-03-13T07:51:03;2.05;90.50
67133;HTU21D;54052;53.542;49.408;2023-03-13T07:53:30;2.01;90.08
67133;HTU21D;54052;53.542;49.408;2023-03-13T07:56:04;1.98;90.51
67133;HTU21D;54052;53.542;49.408;2023-03-13T07:58:32;1.97;90.66
67133;HTU21D;54052;53.542;49.408;2023-03-13T08:00:59;1.94;90.26
67133;HTU21D;54052;53.542;49.408;2023-03-13T08:03:25;1.82;90.59
67133;HTU21D;54052;53.542;49.408;2023-03-13T08:06:06;1.85;90.63
67133;HTU21D;54052;53.542;49.408;2023-03-13T08:08:33;1.81;90.64
67133;HTU21D;54052;53.542;49.408;2023-03-13T08:11:22;1.78;91.03
67133;HTU21D;54052;53.542;49.408;2023-03-13T08:13:52;1.82;91.11
67133;HTU21D;54052;53.542;49.408;2023-03-13T08:16:21;1.73;90.41
67133;HTU21D;54052;53.542;49.408;2023-03-13T08:18:49;1.66;90.97
67133;HTU21D;54052;53.542;49.408;2023-03-13T08:21:20;1.69;91.76
67133;HTU21D;54052;53.542;49.408;2023-03-13T08:23:47;1.79;90.85
67133;HTU21D;54052;53.542;49.408;2023-03-13T08:26:18;1.84;90.87
67133;HTU21D;54052;53.542;49.408;2023-03-13T08:28:46;1.82;90.59
67133;HTU21D;54052;53.542;49.408;2023-03-13T08:31:15;1.79;90.86
67133;HTU21D;54052;53.542;49.408;2023-03-13T08:33:42;1.81;91.18
67133;HTU21D;54052;53.542;49.408;2023-03-13T08:38:38;2.01;89.77
67133;HTU21D;54052;53.542;49.408;2023-03-13T08:41:07;2.00;90.15
67133;HTU21D;54052;53.542;49.408;2023-03-13T08:43:33;2.00;90.79
67133;HTU21D;54052;53.542;49.408;2023-03-13T08:45:59;2.10;89.55
67133;HTU21D;54052;53.542;49.408;2023-03-13T08:48:26;2.25;89.51
67133;HTU21D;54052;53.542;49.408;2023-03-13T08:51:06;2.44;88.17
67133;HTU21D;54052;53.542;49.408;2023-03-13T08:53:34;2.61;88.06
67133;HTU21D;54052;53.542;49.408;2023-03-13T08:56:00;2.76;87.06
67133;HTU21D;54052;53.542;49.408;2023-03-13T08:58:27;2.94;85.63
67133;HTU21D;54052;53.542;49.408;2023-03-13T09:00:53;3.14;84.61
67133;HTU21D;54052;53.542;49.408;2023-03-13T09:03:20;3.24;84.43
67133;HTU21D;54052;53.542;49.408;2023-03-13T09:05:46;3.38;85.06
67133;HTU21D;54052;53.542;49.408;2023-03-13T09:08:13;3.50;82.29
67133;HTU21D;54052;53.542;49.408;2023-03-13T09:10:39;3.56;82.85
67133;HTU21D;54052;53.542;49.408;2023-03-13T09:13:05;3.63;83.48
67133;HTU21D;54052;53.542;49.408;2023-03-13T09:15:31;3.70;83.36
67133;HTU21D;54052;53.542;49.408;2023-03-13T09:17:57;3.84;82.23
67133;HTU21D;54052;53.542;49.408;2023-03-13T09:20:23;3.91;80.94
67133;HTU21D;54052;53.542;49.408;2023-03-13T09:22:49;3.93;80.89
67133;HTU21D;54052;53.542;49.408;2023-03-13T09:25:16;4.21;80.78
67133;HTU21D;54052;53.542;49.408;2023-03-13T09:27:42;4.30;78.18
67133;HTU21D;54052;53.542;49.408;2023-03-13T09:30:08;4.28;80.33
67133;HTU21D;54052;53.542;49.408;2023-03-13T09:32:34;4.46;79.86
67133;HTU21D;54052;53.542;49.408;2023-03-13T09:35:00;4.57;78.05
67133;HTU21D;54052;53.542;49.408;2023-03-13T09:37:26;4.68;79.54
67133;HTU21D;54052;53.542;49.408;2023-03-13T09:39:52;4.71;77.71
67133;HTU21D;54052;53.542;49.408;2023-03-13T09:42:27;4.69;77.15
67133;HTU21D;54052;53.542;49.408;2023-03-13T09:45:08;4.80;75.57
67133;HTU21D;54052;53.542;49.408;2023-03-13T09:50:26;4.48;75.95
67133;HTU21D;54052;53.542;49.408;2023-03-13T09:52:58;4.50;75.45
67133;HTU21D;54052;53.542;49.408;2023-03-13T09:55:32;4.44;75.41
67133;HTU21D;54052;53.542;49.408;2023-03-13T09:58:24;4.16;77.27
67133;HTU21D;54052;53.542;49.408;2023-03-13T10:01:03;4.19;79.88
67133;HTU21D;54052;53.542;49.408;2023-03-13T10:03:47;4.44;76.51
67133;HTU21D;54052;53.542;49.408;2023-03-13T10:06:21;4.64;75.47
67133;HTU21D;54052;53.542;49.408;2023-03-13T10:08:49;4.36;73.59
67133;HTU21D;54052;53.542;49.408;2023-03-13T10:11:30;3.88;75.34
67133;HTU21D;54052;53.542;49.408;2023-03-13T10:16:48;3.94;75.56
67133;HTU21D;54052;53.542;49.408;2023-03-13T10:19:26;3.91;73.63
67133;HTU21D;54052;53.542;49.408;2023-03-13T10:21:54;3.69;73.12
67133;HTU21D;54052;53.542;49.408;2023-03-13T10:24:35;3.71;73.75
67133;HTU21D;54052;53.542;49.408;2023-03-13T10:27:02;3.73;72.46
67133;HTU21D;54052;53.542;49.408;2023-03-13T10:29:29;3.77;75.36
67133;HTU21D;54052;53.542;49.408;2023-03-13T10:32:01;3.79;74.12
67133;HTU21D;54052;53.542;49.408;2023-03-13T10:37:21;3.36;75.50
67133;HTU21D;54052;53.542;49.408;2023-03-13T10:39:47;3.21;75.70
67133;HTU21D;54052;53.542;49.408;2023-03-13T10:42:25;3.12;73.74
67133;HTU21D;54052;53.542;49.408;2023-03-13T10:44:59;3.13;70.46
67133;HTU21D;54052;53.542;49.408;2023-03-13T10:47:26;3.16;69.23
67133;HTU21D;54052;53.542;49.408;2023-03-13T10:49:56;3.16;71.20
67133;HTU21D;54052;53.542;49.408;2023-03-13T10:52:33;3.23;71.52
67133;HTU21D;54052;53.542;49.408;2023-03-13T10:55:02;3.29;69.20
67133;HTU21D;54052;53.542;49.408;2023-03-13T10:57:31;3.27;67.56
67133;HTU21D;54052;53.542;49.408;2023-03-13T10:59:59;3.15;69.16
67133;HTU21D;54052;53.542;49.408;2023-03-13T11:02:35;3.06;70.71
67133;HTU21D;54052;53.542;49.408;2023-03-13T11:07:54;2.99;70.78
67133;HTU21D;54052;53.542;49.408;2023-03-13T11:10:26;3.03;70.22
67133;HTU21D;54052;53.542;49.408;2023-03-13T11:12:55;3.02;71.52
67133;HTU21D;54052;53.542;49.408;2023-03-13T11:18:14;3.02;68.23
67133;HTU21D;54052;53.542;49.408;2023-03-13T11:20:47;3.03;65.75
67133;HTU21D;54052;53.542;49.408;2023-03-13T11:23:22;3.13;65.04
67133;HTU21D;54052;53.542;49.408;2023-03-13T11:26:25;3.38;65.37
67133;HTU21D;54052;53.542;49.408;2023-03-13T11:31:55;3.38;64.70
67133;HTU21D;54052;53.542;49.408;2023-03-13T11:34:33;3.38;64.18
67133;HTU21D;54052;53.542;49.408;2023-03-13T11:39:54;3.21;65.43
67133;HTU21D;54052;53.542;49.408;2023-03-13T11:45:49;3.03;67.94
67133;HTU21D;54052;53.542;49.408;2023-03-13T11:56:42;2.31;67.84
67133;HTU21D;54052;53.542;49.408;2023-03-13T11:59:44;2.29;66.99
67133;HTU21D;54052;53.542;49.408;2023-03-13T12:02:37;2.27;65.67
67133;HTU21D;54052;53.542;49.408;2023-03-13T12:05:11;2.28;67.14
67133;HTU21D;54052;53.542;49.408;2023-03-13T12:07:41;2.40;67.87
67133;HTU21D;54052;53.542;49.408;2023-03-13T12:10:13;2.51;66.98
67133;HTU21D;54052;53.542;49.408;2023-03-13T12:12:46;2.53;66.85
67133;HTU21D;54052;53.542;49.408;2023-03-13T12:18:41;2.76;65.08
67133;HTU21D;54052;53.542;49.408;2023-03-13T12:26:16;2.98;64.08
67133;HTU21D;54052;53.542;49.408;2023-03-13T12:36:52;2.79;63.37
67133;HTU21D;54052;53.542;49.408;2023-03-13T12:39:29;2.89;64.52
67133;HTU21D;54052;53.542;49.408;2023-03-13T12:42:12;3.08;64.01
67133;HTU21D;54052;53.542;49.408;2023-03-13T12:44:42;2.95;61.32
67133;HTU21D;54052;53.542;49.408;2023-03-13T12:50:10;2.94;61.77
67133;HTU21D;54052;53.542;49.408;2023-03-13T12:56:00;2.94;61.83
67133;HTU21D;54052;53.542;49.408;2023-03-13T13:01:31;2.84;58.36
67133;HTU21D;54052;53.542;49.408;2023-03-13T13:04:07;2.91;60.99
67133;HTU21D;54052;53.542;49.408;2023-03-13T13:07:06;2.88;59.26
67133;HTU21D;54052;53.542;49.408;2023-03-13T13:12:47;2.47;60.77
67133;HTU21D;54052;53.542;49.408;2023-03-13T13:15:32;2.52;61.52
67133;HTU21D;54052;53.542;49.408;2023-03-13T13:23:36;2.68;61.03
67133;HTU21D;54052;53.542;49.408;2023-03-13T13:29:51;2.71;60.98
67133;HTU21D;54052;53.542;49.408;2023-03-13T13:37:01;2.83;60.31
67133;HTU21D;54052;53.542;49.408;2023-03-13T13:39:42;2.84;59.93
67133;HTU21D;54052;53.542;49.408;2023-03-13T13:45:01;2.67;61.42
67133;HTU21D;54052;53.542;49.408;2023-03-13T13:47:28;2.54;62.53
67133;HTU21D;54052;53.542;49.408;2023-03-13T13:49:57;2.51;62.70
67133;HTU21D;54052;53.542;49.408;2023-03-13T13:52:37;2.49;62.70
67133;HTU21D;54052;53.542;49.408;2023-03-13T13:57:46;2.35;62.65
67133;HTU21D;54052;53.542;49.408;2023-03-13T14:00:20;2.34;63.89
67133;HTU21D;54052;53.542;49.408;2023-03-13T14:02:51;2.34;63.84
67133;HTU21D;54052;53.542;49.408;2023-03-13T14:05:21;2.37;63.03
67133;HTU21D;54052;53.542;49.408;2023-03-13T14:11:03;2.31;63.02
67133;HTU21D;54052;53.542;49.408;2023-03-13T14:13:30;2.26;63.64
67133;HTU21D;54052;53.542;49.408;2023-03-13T14:15:56;2.24;65.91
67133;HTU21D;54052;53.542;49.408;2023-03-13T14:18:27;2.26;65.19
67133;HTU21D;54052;53.542;49.408;2023-03-13T14:20:57;2.35;63.76
67133;HTU21D;54052;53.542;49.408;2023-03-13T14:23:33;2.29;64.26
67133;HTU21D;54052;53.542;49.408;2023-03-13T14:26:21;2.20;63.76
67133;HTU21D;54052;53.542;49.408;2023-03-13T14:29:01;2.14;65.18
67133;HTU21D;54052;53.542;49.408;2023-03-13T14:31:33;2.17;65.36
67133;HTU21D;54052;53.542;49.408;2023-03-13T14:34:01;2.12;63.75
67133;HTU21D;54052;53.542;49.408;2023-03-13T14:36:28;2.06;64.55
67133;HTU21D;54052;53.542;49.408;2023-03-13T14:38:58;1.97;64.95
67133;HTU21D;54052;53.542;49.408;2023-03-13T14:41:35;1.88;64.75
67133;HTU21D;54052;53.542;49.408;2023-03-13T14:46:48;1.78;65.30
67133;HTU21D;54052;53.542;49.408;2023-03-13T14:49:20;1.71;65.15
67133;HTU21D;54052;53.542;49.408;2023-03-13T14:54:33;1.54;65.68
67133;HTU21D;54052;53.542;49.408;2023-03-13T14:59:35;1.51;67.23
67133;HTU21D;54052;53.542;49.408;2023-03-13T15:02:22;1.56;66.27
67133;HTU21D;54052;53.542;49.408;2023-03-13T15:05:05;1.56;65.88
67133;HTU21D;54052;53.542;49.408;2023-03-13T15:07:41;1.56;66.75
67133;HTU21D;54052;53.542;49.408;2023-03-13T15:12:50;1.58;66.83
67133;HTU21D;54052;53.542;49.408;2023-03-13T15:15:17;1.60;66.60
67133;HTU21D;54052;53.542;49.408;2023-03-13T15:17:43;1.63;66.95
67133;HTU21D;54052;53.542;49.408;2023-03-13T15:20:12;1.65;65.98
67133;HTU21D;54052;53.542;49.408;2023-03-13T15:22:41;1.67;66.16
67133;HTU21D;54052;53.542;49.408;2023-03-13T15:25:18;1.68;65.53
67133;HTU21D;54052;53.542;49.408;2023-03-13T15:27:45;1.70;65.84
67133;HTU21D;54052;53.542;49.408;2023-03-13T15:30:21;1.71;65.04
67133;HTU21D;54052;53.542;49.408;2023-03-13T15:32:50;1.70;68.33
67133;HTU21D;54052;53.542;49.408;2023-03-13T15:35:29;1.58;66.06
67133;HTU21D;54052;53.542;49.408;2023-03-13T15:37:57;1.58;65.76
67133;HTU21D;54052;53.542;49.408;2023-03-13T15:40:24;1.61;65.28
67133;HTU21D;54052;53.542;49.408;2023-03-13T15:42:53;1.63;65.75
67133;HTU21D;54052;53.542;49.408;2023-03-13T15:45:20;1.60;65.98
67133;HTU21D;54052;53.542;49.408;2023-03-13T15:47:46;1.54;68.90
67133;HTU21D;54052;53.542;49.408;2023-03-13T15:50:16;1.43;66.69
67133;HTU21D;54052;53.542;49.408;2023-03-13T15:52:48;1.46;67.23
67133;HTU21D;54052;53.542;49.408;2023-03-13T15:55:14;1.36;68.04
67133;HTU21D;54052;53.542;49.408;2023-03-13T15:57:45;1.33;66.67
67133;HTU21D;54052;53.542;49.408;2023-03-13T16:02:41;1.26;68.58
67133;HTU21D;54052;53.542;49.408;2023-03-13T16:05:08;1.28;67.74
67133;HTU21D;54052;53.542;49.408;2023-03-13T16:07:34;1.28;67.66
67133;HTU21D;54052;53.542;49.408;2023-03-13T16:10:00;1.29;68.20
67133;HTU21D;54052;53.542;49.408;2023-03-13T16:12:26;1.22;71.32
67133;HTU21D;54052;53.542;49.408;2023-03-13T16:14:52;1.02;72.19
67133;HTU21D;54052;53.542;49.408;2023-03-13T16:17:19;0.96;71.09
67133;HTU21D;54052;53.542;49.408;2023-03-13T16:19:47;0.95;70.61
67133;HTU21D;54052;53.542;49.408;2023-03-13T16:22:13;0.92;73.82
67133;HTU21D;54052;53.542;49.408;2023-03-13T16:24:40;0.89;74.09
67133;HTU21D;54052;53.542;49.408;2023-03-13T16:27:14;0.80;74.75
67133;HTU21D;54052;53.542;49.408;2023-03-13T16:29:41;0.72;74.25
67133;HTU21D;54052;53.542;49.408;2023-03-13T16:32:15;0.64;74.41
67133;HTU21D;54052;53.542;49.408;2023-03-13T16:34:43;0.71;73.20
67133;HTU21D;54052;53.542;49.408;2023-03-13T16:37:15;0.75;72.46
67133;HTU21D;54052;53.542;49.408;2023-03-13T16:39:42;0.74;73.67
67133;HTU21D;54052;53.542;49.408;2023-03-13T16:42:09;0.69;75.61
67133;HTU21D;54052;53.542;49.408;2023-03-13T16:44:35;0.68;74.64
67133;HTU21D;54052;53.542;49.408;2023-03-13T16:47:02;0.68;74.56
67133;HTU21D;54052;53.542;49.408;2023-03-13T16:49:33;0.63;75.18
67133;HTU21D;54052;53.542;49.408;2023-03-13T16:51:59;0.55;75.04
67133;HTU21D;54052;53.542;49.408;2023-03-13T16:54:25;0.52;75.13
67133;HTU21D;54052;53.542;49.408;2023-03-13T16:56:51;0.55;73.89
67133;HTU21D;54052;53.542;49.408;2023-03-13T16:59:17;0.60;72.85
67133;HTU21D;54052;53.542;49.408;2023-03-13T17:01:44;0.65;72.66
67133;HTU21D;54052;53.542;49.408;2023-03-13T17:04:13;0.66;71.79
67133;HTU21D;54052;53.542;49.408;2023-03-13T17:06:41;0.68;71.88
67133;HTU21D;54052;53.542;49.408;2023-03-13T17:09:16;0.72;71.48
67133;HTU21D;54052;53.542;49.408;2023-03-13T17:11:42;0.71;71.81
67133;HTU21D;54052;53.542;49.408;2023-03-13T17:14:09;0.72;71.53
67133;HTU21D;54052;53.542;49.408;2023-03-13T17:16:38;0.82;71.26